Eastern Iowa Airport (CID)


Airport Diagram
Current Weather/Forecast (VFR Conditions)
METAR KCID 240852Z AUTO 36004KT 10SM CLR M01/M03 A2992 RMK AO2 SLP138 T10111028 58006 $
TAF KCID 240520Z 2406/2506 36008KT P6SM BKN200 FM241300 05005KT P6SM OVC100 FM250300 04010KT 6SM -SN SCT030 OVC035

All Charts
General
Chart Name Download
AIRPORT DIAGRAM
TAKEOFF MINIMUMS
ALTERNATE MINIMUMS
HOT SPOT

Approaches
Chart Name Download
ILS OR LOC RWY 09
ILS OR LOC RWY 27
RNAV (GPS) RWY 09
RNAV (GPS) RWY 13
RNAV (GPS) RWY 27
RNAV (GPS) RWY 31